createdAt,value
2019-03-08T00:00:14.219Z,0.00
2019-03-08T00:01:14.204Z,0.00
2019-03-08T00:02:14.194Z,0.00
2019-03-08T00:03:14.204Z,0.00
2019-03-08T00:04:14.174Z,0.00
2019-03-08T00:05:14.163Z,0.00
2019-03-08T00:06:14.157Z,0.00
2019-03-08T00:07:14.167Z,0.00
2019-03-08T00:08:14.140Z,0.00
2019-03-08T00:09:14.124Z,0.00
2019-03-08T00:10:14.118Z,0.00
2019-03-08T00:11:14.103Z,0.00
2019-03-08T00:12:14.088Z,0.00
2019-03-08T00:13:14.095Z,0.00
2019-03-08T00:14:14.062Z,0.00
2019-03-08T00:15:14.060Z,0.00
2019-03-08T00:16:14.046Z,0.00
2019-03-08T00:17:14.038Z,0.00
2019-03-08T00:18:14.051Z,0.00
2019-03-08T00:19:14.036Z,0.00
2019-03-08T00:20:14.004Z,0.00
2019-03-08T00:21:13.990Z,0.00
2019-03-08T00:22:13.978Z,0.00
2019-03-08T00:23:13.977Z,0.00
2019-03-08T00:24:13.960Z,0.00
2019-03-08T00:25:13.965Z,0.00
2019-03-08T00:26:13.934Z,0.00
2019-03-08T00:27:13.964Z,0.00
2019-03-08T00:28:13.916Z,0.00
2019-03-08T00:29:13.931Z,0.00
2019-03-08T00:30:13.898Z,0.00
2019-03-08T00:31:13.900Z,0.00
2019-03-08T00:32:13.870Z,0.00
2019-03-08T00:33:13.876Z,0.00
2019-03-08T00:34:13.855Z,0.00
2019-03-08T00:35:13.871Z,0.00
2019-03-08T00:36:13.831Z,0.00
2019-03-08T00:37:13.819Z,0.00
2019-03-08T00:38:13.815Z,0.00
2019-03-08T00:39:13.813Z,0.00
2019-03-08T00:40:13.784Z,0.00
2019-03-08T00:41:13.798Z,0.00
2019-03-08T00:42:13.770Z,0.00
2019-03-08T00:43:13.751Z,0.00
2019-03-08T00:44:13.742Z,0.00
2019-03-08T00:45:13.731Z,0.00
2019-03-08T00:46:13.739Z,0.00
2019-03-08T00:47:13.714Z,0.00
2019-03-08T00:48:13.701Z,0.00
2019-03-08T00:49:13.690Z,0.00
2019-03-08T00:50:13.681Z,0.00
2019-03-08T00:51:13.724Z,0.00
2019-03-08T00:52:13.673Z,0.00
2019-03-08T00:53:15.662Z,0.00
2019-03-08T00:54:13.636Z,0.00
2019-03-08T00:55:13.630Z,0.00
2019-03-08T00:56:13.619Z,0.00
2019-03-08T00:57:13.624Z,0.00
2019-03-08T00:58:13.590Z,0.00
2019-03-08T00:59:13.588Z,0.00
2019-03-08T01:00:13.580Z,0.00
2019-03-08T01:01:13.562Z,0.00
2019-03-08T01:02:13.573Z,0.00
2019-03-08T01:03:13.558Z,0.00
2019-03-08T01:04:13.538Z,0.00
2019-03-08T01:05:13.559Z,0.00
2019-03-08T01:06:13.506Z,0.00
2019-03-08T01:07:13.503Z,0.00
2019-03-08T01:08:13.506Z,0.00
2019-03-08T01:09:13.478Z,0.00
2019-03-08T01:10:13.469Z,0.00
2019-03-08T01:11:13.452Z,0.00
2019-03-08T01:12:13.445Z,0.00
2019-03-08T01:13:13.458Z,0.00
2019-03-08T01:14:13.427Z,0.00
2019-03-08T01:15:13.415Z,0.00
2019-03-08T01:16:13.401Z,0.00
2019-03-08T01:17:13.390Z,0.00
2019-03-08T01:18:13.382Z,0.00
2019-03-08T01:19:13.399Z,0.00
2019-03-08T01:20:13.360Z,0.00
2019-03-08T01:21:13.349Z,0.00
2019-03-08T01:22:13.342Z,0.00
2019-03-08T01:23:13.328Z,0.00
2019-03-08T01:24:13.314Z,0.00
2019-03-08T01:25:13.323Z,0.00
2019-03-08T01:26:13.291Z,0.00
2019-03-08T01:27:13.287Z,0.00
2019-03-08T01:28:13.276Z,0.00
2019-03-08T01:29:13.285Z,0.00
2019-03-08T01:30:13.266Z,0.00
2019-03-08T01:31:13.246Z,0.00
2019-03-08T01:32:13.237Z,0.00
2019-03-08T01:33:13.235Z,0.00
2019-03-08T01:34:13.214Z,0.00
2019-03-08T01:35:13.220Z,0.00
2019-03-08T01:36:13.188Z,0.00
2019-03-08T01:37:13.176Z,0.00
2019-03-08T01:38:13.176Z,0.00
2019-03-08T01:39:13.159Z,0.00
2019-03-08T01:40:13.151Z,0.00
2019-03-08T01:41:13.159Z,0.00
2019-03-08T01:42:13.145Z,0.00
2019-03-08T01:43:13.110Z,0.00
2019-03-08T01:44:13.101Z,0.00
2019-03-08T01:45:13.095Z,0.00
2019-03-08T01:46:13.089Z,0.00
2019-03-08T01:47:13.094Z,0.00
2019-03-08T01:48:13.059Z,0.00
2019-03-08T01:49:13.048Z,0.00
2019-03-08T01:50:13.035Z,0.00
2019-03-08T01:51:13.031Z,0.00
2019-03-08T01:52:13.043Z,0.00
2019-03-08T01:53:13.010Z,0.00
2019-03-08T01:54:12.998Z,0.00
2019-03-08T01:55:12.984Z,0.00
2019-03-08T01:56:12.970Z,0.00
2019-03-08T01:57:12.960Z,0.00
2019-03-08T01:58:12.972Z,0.00
2019-03-08T01:59:12.947Z,0.00
2019-03-08T02:00:12.934Z,0.00
2019-03-08T02:01:12.915Z,0.00
2019-03-08T02:02:12.911Z,0.00
2019-03-08T02:03:12.925Z,0.00
2019-03-08T02:04:12.895Z,0.00
2019-03-08T02:05:12.885Z,0.00
2019-03-08T02:06:12.868Z,0.00
2019-03-08T02:07:12.857Z,0.00
2019-03-08T02:08:12.842Z,0.00
2019-03-08T02:09:12.855Z,0.00
2019-03-08T02:10:12.823Z,0.00
2019-03-08T02:11:12.813Z,0.00
2019-03-08T02:12:12.839Z,0.00
2019-03-08T02:13:12.797Z,0.00
2019-03-08T02:14:12.799Z,0.00
2019-03-08T02:15:12.768Z,0.00
2019-03-08T02:16:12.755Z,0.00
2019-03-08T02:17:12.752Z,0.00
2019-03-08T02:18:12.738Z,0.00
2019-03-08T02:19:12.752Z,0.00
2019-03-08T02:20:12.717Z,0.00
2019-03-08T02:21:12.703Z,0.00
2019-03-08T02:22:12.698Z,0.00
2019-03-08T02:23:12.685Z,0.00
2019-03-08T02:24:12.683Z,0.00
2019-03-08T02:25:12.703Z,0.00
2019-03-08T02:26:12.654Z,0.00
2019-03-08T02:27:12.641Z,0.00
2019-03-08T02:28:12.627Z,0.00
2019-03-08T02:29:12.616Z,0.00
2019-03-08T02:30:12.627Z,0.00
2019-03-08T02:31:12.599Z,0.00
2019-03-08T02:32:12.609Z,0.00
2019-03-08T02:33:12.577Z,0.00
2019-03-08T02:34:12.573Z,0.00
2019-03-08T02:35:12.570Z,0.00
2019-03-08T02:36:12.567Z,0.00
2019-03-08T02:37:12.552Z,0.00
2019-03-08T02:38:12.548Z,0.00
2019-03-08T02:39:12.517Z,0.00
2019-03-08T02:40:12.503Z,0.00
2019-03-08T02:41:12.492Z,0.00
2019-03-08T02:42:12.502Z,0.00
2019-03-08T02:43:12.466Z,0.00
2019-03-08T02:44:12.459Z,0.00
2019-03-08T02:45:12.453Z,0.00
2019-03-08T02:46:12.459Z,0.00
2019-03-08T02:47:12.438Z,0.00
2019-03-08T02:48:12.415Z,0.00
2019-03-08T02:49:12.424Z,0.00
2019-03-08T02:50:12.390Z,0.00
2019-03-08T02:51:12.386Z,0.00
2019-03-08T02:52:12.392Z,0.00
2019-03-08T02:53:12.367Z,0.00
2019-03-08T02:54:12.355Z,0.00
2019-03-08T02:55:12.355Z,0.00
2019-03-08T02:56:12.328Z,0.00
2019-03-08T02:57:12.334Z,0.00
2019-03-08T02:58:12.305Z,0.00
2019-03-08T02:59:12.301Z,0.00
2019-03-08T03:00:12.306Z,0.00
2019-03-08T03:01:12.276Z,0.00
2019-03-08T03:02:12.268Z,0.00
2019-03-08T03:03:12.290Z,0.00
2019-03-08T03:04:12.257Z,0.00
2019-03-08T03:05:12.235Z,0.00
2019-03-08T03:06:12.243Z,0.00
2019-03-08T03:07:12.208Z,0.00
2019-03-08T03:08:12.236Z,0.00
2019-03-08T03:09:12.194Z,0.00
2019-03-08T03:10:12.177Z,0.00
2019-03-08T03:11:12.173Z,0.00
2019-03-08T03:12:12.163Z,0.00
2019-03-08T03:13:12.179Z,0.00
2019-03-08T03:14:12.140Z,0.00
2019-03-08T03:15:12.123Z,0.00
2019-03-08T03:16:12.114Z,0.00
2019-03-08T03:17:12.105Z,0.00
2019-03-08T03:18:12.721Z,0.00
2019-03-08T03:19:12.121Z,0.00
2019-03-08T03:20:12.074Z,0.00
2019-03-08T03:21:12.060Z,0.00
2019-03-08T03:22:12.047Z,0.00
2019-03-08T03:23:12.044Z,0.00
2019-03-08T03:24:12.055Z,0.00
2019-03-08T03:25:12.030Z,0.00
2019-03-08T03:26:12.015Z,0.00
2019-03-08T03:27:11.994Z,0.00
2019-03-08T03:28:11.995Z,0.00
2019-03-08T03:29:11.976Z,0.00
2019-03-08T03:30:11.987Z,0.00
2019-03-08T03:31:11.971Z,0.00
2019-03-08T03:32:11.962Z,0.00
2019-03-08T03:33:11.939Z,0.00
2019-03-08T03:34:11.924Z,0.00
2019-03-08T03:35:11.910Z,0.00
2019-03-08T03:36:11.928Z,0.00
2019-03-08T03:37:11.893Z,0.00
2019-03-08T03:38:11.889Z,0.00
2019-03-08T03:39:11.868Z,0.00
2019-03-08T03:40:11.865Z,0.00
2019-03-08T03:41:11.848Z,0.00
2019-03-08T03:42:11.858Z,0.00
2019-03-08T03:43:11.833Z,0.00
2019-03-08T03:44:11.819Z,0.00
2019-03-08T03:45:11.809Z,0.00
2019-03-08T03:46:11.802Z,0.00
2019-03-08T03:47:11.782Z,0.00
2019-03-08T03:48:11.798Z,0.00
2019-03-08T03:49:11.769Z,0.00
2019-03-08T03:50:11.768Z,0.00
2019-03-08T03:51:11.773Z,0.00
2019-03-08T03:52:11.733Z,0.00
2019-03-08T03:53:11.723Z,0.00
2019-03-08T03:54:11.725Z,0.00
2019-03-08T03:55:11.706Z,0.00
2019-03-08T03:56:11.693Z,0.00
2019-03-08T03:57:11.680Z,0.00
2019-03-08T03:58:11.670Z,0.00
2019-03-08T03:59:11.670Z,0.00
2019-03-08T04:00:11.841Z,0.00
2019-03-08T04:01:11.635Z,0.00
2019-03-08T04:02:11.624Z,0.00
2019-03-08T04:03:11.642Z,0.00
2019-03-08T04:04:11.605Z,0.00
2019-03-08T04:05:11.594Z,0.00
2019-03-08T04:06:11.585Z,0.00
2019-03-08T04:07:11.567Z,0.00
2019-03-08T04:08:11.560Z,0.00
2019-03-08T04:09:11.575Z,0.00
2019-03-08T04:10:11.563Z,0.00
2019-03-08T04:11:11.549Z,0.00
2019-03-08T04:12:11.517Z,0.00
2019-03-08T04:13:11.510Z,0.00
2019-03-08T04:14:11.496Z,0.00
2019-03-08T04:15:11.490Z,0.00
2019-03-08T04:16:11.476Z,0.00
2019-03-08T04:17:11.482Z,0.00
2019-03-08T04:18:11.456Z,0.00
2019-03-08T04:19:11.463Z,0.00
2019-03-08T04:20:11.432Z,0.00
2019-03-08T04:21:11.430Z,0.00
2019-03-08T04:22:11.407Z,0.00
2019-03-08T04:23:11.404Z,0.00
2019-03-08T04:24:11.391Z,0.00
2019-03-08T04:25:11.396Z,0.00
2019-03-08T04:26:11.366Z,0.00
2019-03-08T04:27:11.361Z,0.00
2019-03-08T04:28:11.356Z,0.00
2019-03-08T04:29:11.338Z,0.00
2019-03-08T04:30:11.358Z,0.00
2019-03-08T04:31:11.311Z,0.00
2019-03-08T04:32:11.307Z,0.00
2019-03-08T04:33:11.293Z,0.00
2019-03-08T04:34:11.297Z,0.00
2019-03-08T04:35:11.276Z,0.00
2019-03-08T04:36:11.286Z,0.00
2019-03-08T04:37:11.255Z,0.00
2019-03-08T04:38:11.248Z,0.00
2019-03-08T04:39:11.226Z,0.00
2019-03-08T04:40:11.217Z,0.00
2019-03-08T04:41:11.212Z,0.00
2019-03-08T04:42:11.229Z,0.00
2019-03-08T04:43:11.184Z,0.00
2019-03-08T04:44:11.175Z,0.00
2019-03-08T04:45:11.165Z,0.00
2019-03-08T04:46:11.153Z,0.00
2019-03-08T04:47:11.148Z,0.00
2019-03-08T04:48:11.155Z,0.00
2019-03-08T04:49:11.124Z,0.00
2019-03-08T04:50:11.118Z,0.00
2019-03-08T04:51:11.098Z,0.00
2019-03-08T04:52:11.114Z,0.00
2019-03-08T04:53:11.080Z,0.00
2019-03-08T04:54:11.066Z,0.00
2019-03-08T04:55:11.063Z,0.00
2019-03-08T04:56:11.054Z,0.00
2019-03-08T04:57:11.040Z,0.00
2019-03-08T04:58:11.070Z,0.00
2019-03-08T04:59:11.019Z,0.00
2019-03-08T05:00:11.005Z,0.00
2019-03-08T05:01:10.997Z,0.00
2019-03-08T05:02:10.986Z,0.00
2019-03-08T05:03:10.970Z,0.00
2019-03-08T05:04:10.980Z,0.00
2019-03-08T05:05:10.969Z,0.00
2019-03-08T05:06:10.962Z,0.00
2019-03-08T05:07:10.933Z,0.00
2019-03-08T05:08:10.922Z,0.00
2019-03-08T05:09:10.927Z,0.00
2019-03-08T05:10:10.901Z,0.00
2019-03-08T05:11:10.885Z,0.00
2019-03-08T05:12:10.876Z,0.00
2019-03-08T05:13:10.867Z,0.00
2019-03-08T05:14:10.890Z,0.00
2019-03-08T05:15:10.844Z,0.00
2019-03-08T05:16:10.833Z,0.00
2019-03-08T05:17:10.844Z,0.00
2019-03-08T05:18:10.813Z,0.00
2019-03-08T05:19:10.808Z,0.00
2019-03-08T05:20:10.793Z,0.00
2019-03-08T05:21:10.783Z,0.00
2019-03-08T05:22:10.791Z,0.00
2019-03-08T05:23:10.773Z,0.00
2019-03-08T05:24:10.748Z,0.00
2019-03-08T05:25:10.740Z,0.00
2019-03-08T05:26:10.725Z,0.00
2019-03-08T05:27:10.721Z,0.00
2019-03-08T05:28:10.732Z,0.00
2019-03-08T05:29:10.695Z,0.00
2019-03-08T05:30:10.707Z,0.00
2019-03-08T05:31:10.681Z,0.00
2019-03-08T05:32:10.664Z,0.00
2019-03-08T05:33:10.656Z,0.00
2019-03-08T05:34:10.663Z,0.00
2019-03-08T05:35:10.669Z,4.00
2019-03-08T05:36:10.752Z,4.00
2019-03-08T05:37:10.665Z,0.00
2019-03-08T05:38:10.613Z,4.00
2019-03-08T05:39:10.594Z,4.00
2019-03-08T05:40:10.600Z,8.00
2019-03-08T05:41:10.579Z,8.00
2019-03-08T05:42:10.580Z,8.00
2019-03-08T05:43:10.565Z,12.00
2019-03-08T05:44:10.537Z,16.00
2019-03-08T05:45:10.533Z,16.00
2019-03-08T05:46:10.518Z,16.00
2019-03-08T05:47:10.501Z,20.00
2019-03-08T05:48:10.525Z,28.00
2019-03-08T05:49:10.508Z,28.00
2019-03-08T05:50:10.468Z,28.00
2019-03-08T05:51:10.473Z,36.00
2019-03-08T05:52:10.451Z,40.00
2019-03-08T05:53:10.441Z,52.00
2019-03-08T05:54:10.435Z,68.00
2019-03-08T05:55:10.445Z,96.00
2019-03-08T05:56:10.407Z,104.00
2019-03-08T05:57:10.399Z,96.00
2019-03-08T05:58:10.407Z,108.00
2019-03-08T05:59:10.382Z,120.00
2019-03-08T06:00:10.385Z,128.00
2019-03-08T06:01:10.353Z,128.00
2019-03-08T06:02:10.370Z,156.00
2019-03-08T06:03:10.336Z,148.00
2019-03-08T06:04:10.324Z,116.00
2019-03-08T06:05:10.332Z,152.00
2019-03-08T06:06:10.308Z,220.00
2019-03-08T06:07:10.289Z,176.00
2019-03-08T06:08:10.281Z,260.00
2019-03-08T06:09:10.270Z,212.00
2019-03-08T06:10:10.281Z,188.00
2019-03-08T06:11:10.267Z,212.00
2019-03-08T06:12:10.238Z,124.00
2019-03-08T06:13:10.228Z,224.00
2019-03-08T06:14:10.214Z,300.00
2019-03-08T06:15:10.215Z,348.00
2019-03-08T06:16:10.241Z,352.00
2019-03-08T06:17:10.207Z,460.00
2019-03-08T06:18:10.181Z,520.00
2019-03-08T06:19:10.166Z,552.00
2019-03-08T06:20:10.155Z,612.00
2019-03-08T06:21:10.150Z,644.00
2019-03-08T06:22:10.158Z,628.00
2019-03-08T06:23:10.117Z,684.00
2019-03-08T06:24:10.109Z,768.00
2019-03-08T06:25:10.101Z,808.00
2019-03-08T06:26:10.086Z,824.00
2019-03-08T06:27:10.110Z,772.00
2019-03-08T06:28:10.096Z,696.00
2019-03-08T06:29:10.070Z,788.00
2019-03-08T06:30:10.048Z,920.00
2019-03-08T06:31:10.033Z,820.00
2019-03-08T06:32:10.025Z,1092.00
2019-03-08T06:33:10.031Z,980.00
2019-03-08T06:34:10.005Z,908.00
2019-03-08T06:35:09.990Z,992.00
2019-03-08T06:36:09.990Z,1204.00
2019-03-08T06:37:09.989Z,1632.00
2019-03-08T06:38:10.000Z,1912.00
2019-03-08T06:39:09.957Z,2204.00
2019-03-08T06:40:09.948Z,1724.00
2019-03-08T06:41:09.929Z,952.00
2019-03-08T06:42:09.922Z,1232.00
2019-03-08T06:43:09.931Z,1372.00
2019-03-08T06:44:09.894Z,1012.00
2019-03-08T06:45:09.883Z,776.00
2019-03-08T06:46:09.877Z,856.00
2019-03-08T06:47:09.866Z,828.00
2019-03-08T06:48:09.853Z,1068.00
2019-03-08T06:49:09.870Z,988.00
2019-03-08T06:50:09.848Z,1056.00
2019-03-08T06:51:09.823Z,980.00
2019-03-08T06:52:09.810Z,1160.00
2019-03-08T06:53:09.799Z,1864.00
2019-03-08T06:54:09.814Z,1740.00
2019-03-08T06:55:09.774Z,1228.00
2019-03-08T06:56:09.771Z,1924.00
2019-03-08T06:57:09.755Z,2712.00
2019-03-08T06:58:09.762Z,2664.00
2019-03-08T06:59:09.768Z,2544.00
2019-03-08T07:00:09.723Z,2300.00
2019-03-08T07:01:09.718Z,2820.00
2019-03-08T07:02:09.708Z,2492.00
2019-03-08T07:03:09.712Z,2396.00
2019-03-08T07:04:09.707Z,2348.00
2019-03-08T07:05:09.674Z,2220.00
2019-03-08T07:06:09.663Z,1968.00
2019-03-08T07:07:09.646Z,1564.00
2019-03-08T07:08:09.635Z,1476.00
2019-03-08T07:09:09.658Z,1692.00
2019-03-08T07:10:09.612Z,1824.00
2019-03-08T07:11:09.611Z,2176.00
2019-03-08T07:12:09.599Z,2520.00
2019-03-08T07:13:09.588Z,1688.00
2019-03-08T07:14:09.577Z,1308.00
2019-03-08T07:15:09.594Z,1652.00
2019-03-08T07:16:13.342Z,2540.00
2019-03-08T07:17:10.538Z,2444.00
2019-03-08T07:18:12.989Z,2312.00
2019-03-08T07:19:09.551Z,2348.00
2019-03-08T07:20:09.538Z,2064.00
2019-03-08T07:21:09.495Z,1980.00
2019-03-08T07:22:09.486Z,1716.00
2019-03-08T07:23:11.052Z,1840.00
2019-03-08T07:24:09.469Z,1876.00
2019-03-08T07:25:09.474Z,1632.00
2019-03-08T07:26:09.453Z,1664.00
2019-03-08T07:27:09.429Z,1708.00
2019-03-08T07:28:09.428Z,1640.00
2019-03-08T07:29:09.412Z,2060.00
2019-03-08T07:30:09.420Z,2396.00
2019-03-08T07:31:09.393Z,2628.00
2019-03-08T07:32:09.398Z,2896.00
2019-03-08T07:33:09.370Z,2340.00
2019-03-08T07:34:11.024Z,2152.00
2019-03-08T07:35:09.349Z,2604.00
2019-03-08T07:36:09.406Z,3044.00
2019-03-08T07:37:09.349Z,3068.00
2019-03-08T07:38:09.317Z,2868.00
2019-03-08T07:39:09.299Z,3188.00
2019-03-08T07:40:09.297Z,3404.00
2019-03-08T07:41:09.285Z,3812.00
2019-03-08T07:42:09.289Z,3736.00
2019-03-08T07:43:09.263Z,3088.00
2019-03-08T07:44:09.250Z,2784.00
2019-03-08T07:45:09.240Z,2680.00
2019-03-08T07:46:09.232Z,4136.00
2019-03-08T07:47:09.241Z,6436.00
2019-03-08T07:48:09.212Z,7644.00
2019-03-08T07:49:09.234Z,7724.00
2019-03-08T07:50:09.182Z,6864.00
2019-03-08T07:51:09.183Z,6056.00
2019-03-08T07:52:09.165Z,5200.00
2019-03-08T07:53:09.171Z,5500.00
2019-03-08T07:54:09.175Z,5028.00
2019-03-08T07:55:09.138Z,4564.00
2019-03-08T07:56:09.126Z,4328.00
2019-03-08T07:57:09.111Z,4528.00
2019-03-08T07:58:09.105Z,4284.00
2019-03-08T07:59:09.104Z,4376.00
2019-03-08T08:00:09.078Z,4260.00
2019-03-08T08:01:09.071Z,5276.00
2019-03-08T08:02:09.057Z,6868.00
2019-03-08T08:03:09.061Z,7620.00
2019-03-08T08:04:09.059Z,7044.00
2019-03-08T08:05:09.032Z,5568.00
2019-03-08T08:06:09.021Z,5944.00
2019-03-08T08:07:09.003Z,8472.00
2019-03-08T08:08:08.993Z,8736.00
2019-03-08T08:09:09.009Z,9684.00
2019-03-08T08:10:08.987Z,11668.00
2019-03-08T08:11:08.995Z,11444.00
2019-03-08T08:12:08.949Z,13668.00
2019-03-08T08:13:08.936Z,10204.00
2019-03-08T08:14:08.927Z,10420.00
2019-03-08T08:15:08.920Z,7844.00
2019-03-08T08:16:08.909Z,5432.00
2019-03-08T08:17:08.915Z,4904.00
2019-03-08T08:18:08.895Z,5340.00
2019-03-08T08:19:08.870Z,4624.00
2019-03-08T08:20:16.044Z,4488.00
2019-03-08T08:21:09.882Z,6684.00
2019-03-08T08:22:08.838Z,8476.00
2019-03-08T08:23:08.858Z,5532.00
2019-03-08T08:24:08.844Z,4884.00
2019-03-08T08:25:08.808Z,5468.00
2019-03-08T08:26:08.795Z,4924.00
2019-03-08T08:27:08.821Z,4468.00
2019-03-08T08:28:08.789Z,6076.00
2019-03-08T08:29:08.767Z,6468.00
2019-03-08T08:30:08.771Z,5296.00
2019-03-08T08:31:09.283Z,4420.00
2019-03-08T08:32:09.945Z,3436.00
2019-03-08T08:33:09.061Z,3488.00
2019-03-08T08:34:09.146Z,3300.00
2019-03-08T08:35:08.704Z,5788.00
2019-03-08T08:36:08.695Z,8912.00
2019-03-08T08:37:08.697Z,9676.00
2019-03-08T08:38:08.673Z,11868.00
2019-03-08T08:39:08.655Z,11216.00
2019-03-08T08:40:08.650Z,9700.00
2019-03-08T08:41:08.637Z,8616.00
2019-03-08T08:42:08.648Z,8524.00
2019-03-08T08:43:08.631Z,7656.00
2019-03-08T08:44:08.763Z,7560.00
2019-03-08T08:45:08.724Z,7792.00
2019-03-08T08:46:08.581Z,10604.00
2019-03-08T08:47:08.577Z,9940.00
2019-03-08T08:48:08.597Z,9756.00
2019-03-08T08:49:08.555Z,8720.00
2019-03-08T08:50:08.542Z,8840.00
2019-03-08T08:51:08.555Z,12004.00
2019-03-08T08:52:08.527Z,11868.00
2019-03-08T08:53:08.548Z,13100.00
2019-03-08T08:54:08.492Z,13160.00
2019-03-08T08:55:08.490Z,10252.00
2019-03-08T08:56:08.476Z,10640.00
2019-03-08T08:57:08.465Z,8628.00
2019-03-08T08:58:08.526Z,5464.00
2019-03-08T08:59:08.463Z,5556.00
2019-03-08T09:00:08.468Z,8100.00
2019-03-08T09:01:08.427Z,9232.00
2019-03-08T09:02:08.513Z,10652.00
2019-03-08T09:03:08.396Z,11808.00
2019-03-08T09:04:10.444Z,9748.00
2019-03-08T09:05:08.386Z,11932.00
2019-03-08T09:06:08.384Z,18208.00
2019-03-08T09:07:08.371Z,13876.00
2019-03-08T09:08:08.359Z,10004.00
2019-03-08T09:09:08.355Z,10096.00
2019-03-08T09:10:08.348Z,7924.00
2019-03-08T09:11:08.310Z,12624.00
2019-03-08T09:12:08.335Z,13352.00
2019-03-08T09:13:08.292Z,10160.00
2019-03-08T09:14:08.289Z,11256.00
2019-03-08T09:15:08.267Z,14812.00
2019-03-08T09:16:08.257Z,16768.00
2019-03-08T09:17:08.272Z,13884.00
2019-03-08T09:18:08.234Z,14692.00
2019-03-08T09:19:08.231Z,12768.00
2019-03-08T09:20:08.229Z,11440.00
2019-03-08T09:21:08.209Z,16672.00
2019-03-08T09:22:08.247Z,18240.00
2019-03-08T09:23:08.180Z,15116.00
2019-03-08T09:24:08.173Z,14184.00
2019-03-08T09:25:08.178Z,13028.00
2019-03-08T09:26:08.149Z,12112.00
2019-03-08T09:27:08.150Z,13164.00
2019-03-08T09:28:08.151Z,12892.00
2019-03-08T09:29:08.117Z,13528.00
2019-03-08T09:30:08.105Z,16160.00
2019-03-08T09:31:08.102Z,17312.00
2019-03-08T09:32:08.109Z,16384.00
2019-03-08T09:33:08.104Z,11160.00
2019-03-08T09:34:08.110Z,10012.00
2019-03-08T09:35:08.050Z,9536.00
2019-03-08T09:36:08.049Z,7624.00
2019-03-08T09:37:08.032Z,7440.00
2019-03-08T09:38:08.026Z,11364.00
2019-03-08T09:39:08.059Z,14948.00
2019-03-08T09:40:08.043Z,14888.00
2019-03-08T09:41:07.994Z,15432.00
2019-03-08T09:42:07.983Z,12272.00
2019-03-08T09:43:07.967Z,12916.00
2019-03-08T09:44:07.957Z,13176.00
2019-03-08T09:45:07.965Z,13784.00
2019-03-08T09:46:07.938Z,11200.00
2019-03-08T09:47:07.923Z,11132.00
2019-03-08T09:48:07.913Z,10104.00
2019-03-08T09:49:07.903Z,10236.00
2019-03-08T09:50:07.912Z,13260.00
2019-03-08T09:51:07.900Z,11556.00
2019-03-08T09:52:07.874Z,11460.00
2019-03-08T09:53:07.865Z,19968.00
2019-03-08T09:54:07.852Z,17344.00
2019-03-08T09:55:07.890Z,17568.00
2019-03-08T09:56:07.864Z,16296.00
2019-03-08T09:57:07.834Z,17536.00
2019-03-08T09:58:07.830Z,14916.00
2019-03-08T09:59:07.798Z,13048.00
2019-03-08T10:00:07.784Z,11600.00
2019-03-08T10:01:16.332Z,11192.00
2019-03-08T10:02:08.782Z,8212.00
2019-03-08T10:03:07.754Z,6896.00
2019-03-08T10:04:07.741Z,7120.00
2019-03-08T10:05:07.730Z,9564.00
2019-03-08T10:06:07.742Z,12516.00
2019-03-08T10:07:07.705Z,16704.00
2019-03-08T10:08:07.719Z,20832.00
2019-03-08T10:09:07.684Z,19584.00
2019-03-08T10:10:07.671Z,19136.00
2019-03-08T10:11:07.668Z,16544.00
2019-03-08T10:12:07.654Z,11684.00
2019-03-08T10:13:07.660Z,9496.00
2019-03-08T10:14:07.664Z,7880.00
2019-03-08T10:15:07.628Z,7068.00
2019-03-08T10:16:07.641Z,9224.00
2019-03-08T10:17:07.602Z,13024.00
2019-03-08T10:18:07.590Z,14708.00
2019-03-08T10:19:07.573Z,17600.00
2019-03-08T10:20:07.581Z,18624.00
2019-03-08T10:21:07.587Z,16704.00
2019-03-08T10:22:07.542Z,15096.00
2019-03-08T10:23:07.536Z,14424.00
2019-03-08T10:24:07.539Z,14364.00
2019-03-08T10:25:07.548Z,13192.00
2019-03-08T10:26:07.550Z,12988.00
2019-03-08T10:27:07.488Z,12360.00
2019-03-08T10:28:07.474Z,11252.00
2019-03-08T10:29:07.468Z,9768.00
2019-03-08T10:30:07.456Z,9228.00
2019-03-08T10:31:07.473Z,10220.00
2019-03-08T10:32:07.445Z,12640.00
2019-03-08T10:33:07.430Z,14224.00
2019-03-08T10:34:07.413Z,13740.00
2019-03-08T10:35:07.411Z,13156.00
2019-03-08T10:36:07.396Z,13012.00
2019-03-08T10:37:07.439Z,11996.00
2019-03-08T10:38:07.375Z,11920.00
2019-03-08T10:39:07.362Z,11604.00
2019-03-08T10:40:07.349Z,10792.00
2019-03-08T10:41:07.334Z,9692.00
2019-03-08T10:42:07.325Z,8960.00
2019-03-08T10:43:07.342Z,8924.00
2019-03-08T10:44:11.051Z,8840.00
2019-03-08T10:45:08.296Z,9284.00
2019-03-08T10:46:15.493Z,9352.00
2019-03-08T10:47:08.283Z,9308.00
2019-03-08T10:48:07.257Z,8960.00
2019-03-08T10:49:07.277Z,7520.00
2019-03-08T10:50:07.241Z,6628.00
2019-03-08T10:51:07.253Z,6280.00
2019-03-08T10:52:07.215Z,6200.00
2019-03-08T10:53:07.205Z,6144.00
2019-03-08T10:54:07.200Z,6212.00
2019-03-08T10:55:07.194Z,4904.00
2019-03-08T10:56:07.178Z,3684.00
2019-03-08T10:57:07.188Z,3544.00
2019-03-08T10:58:07.157Z,3688.00
2019-03-08T10:59:07.141Z,3392.00
2019-03-08T11:00:07.132Z,3276.00
2019-03-08T11:01:07.129Z,3800.00
2019-03-08T11:02:07.131Z,4016.00
2019-03-08T11:03:07.103Z,3844.00
2019-03-08T11:04:07.093Z,3612.00
2019-03-08T11:05:07.074Z,3572.00
2019-03-08T11:06:07.075Z,3716.00
2019-03-08T11:07:07.080Z,4812.00
2019-03-08T11:08:08.977Z,6416.00
2019-03-08T11:09:07.038Z,8008.00
2019-03-08T11:10:07.056Z,6964.00
2019-03-08T11:11:07.045Z,5196.00
2019-03-08T11:12:07.004Z,5060.00
2019-03-08T11:13:07.021Z,6388.00
2019-03-08T11:14:06.979Z,6232.00
2019-03-08T11:15:06.974Z,8264.00
2019-03-08T11:16:06.963Z,11496.00
2019-03-08T11:17:06.970Z,12900.00
2019-03-08T11:18:06.955Z,13864.00
2019-03-08T11:19:09.023Z,13820.00
2019-03-08T11:20:06.916Z,13596.00
2019-03-08T11:21:06.912Z,14232.00
2019-03-08T11:22:06.895Z,10528.00
2019-03-08T11:23:06.884Z,7540.00
2019-03-08T11:24:06.877Z,6876.00
2019-03-08T11:25:08.603Z,8124.00
2019-03-08T11:26:06.852Z,7612.00
2019-03-08T11:27:06.843Z,5148.00
2019-03-08T11:28:06.868Z,4104.00
2019-03-08T11:29:06.850Z,3672.00
2019-03-08T11:30:06.810Z,3164.00
2019-03-08T11:31:06.814Z,3436.00
2019-03-08T11:32:06.784Z,4212.00
2019-03-08T11:33:06.774Z,5260.00
2019-03-08T11:34:06.791Z,6328.00
2019-03-08T11:35:06.764Z,6960.00
2019-03-08T11:36:06.746Z,8796.00
2019-03-08T11:37:06.729Z,10576.00
2019-03-08T11:38:06.719Z,11172.00
2019-03-08T11:39:06.733Z,11788.00
2019-03-08T11:40:06.751Z,13544.00
2019-03-08T11:41:06.696Z,14948.00
2019-03-08T11:42:06.683Z,16020.00
2019-03-08T11:43:06.667Z,16160.00
2019-03-08T11:44:06.656Z,21920.00
2019-03-08T11:45:06.644Z,26176.00
2019-03-08T11:46:06.681Z,26592.00
2019-03-08T11:47:06.625Z,23936.00
2019-03-08T11:48:06.617Z,18752.00
2019-03-08T11:49:06.607Z,15520.00
2019-03-08T11:50:06.597Z,13244.00
2019-03-08T11:51:06.580Z,11428.00
2019-03-08T11:52:06.586Z,10440.00
2019-03-08T11:53:06.562Z,10304.00
2019-03-08T11:54:06.561Z,9216.00
2019-03-08T11:55:06.537Z,8516.00
2019-03-08T11:56:06.550Z,9168.00
2019-03-08T11:57:06.512Z,10572.00
2019-03-08T11:58:06.529Z,12160.00
2019-03-08T11:59:06.520Z,13184.00
2019-03-08T12:00:06.505Z,13888.00
2019-03-08T12:01:06.503Z,14856.00
2019-03-08T12:02:06.482Z,15596.00
2019-03-08T12:03:06.449Z,16864.00
2019-03-08T12:04:06.465Z,18048.00
2019-03-08T12:05:06.429Z,18336.00
2019-03-08T12:06:06.419Z,18048.00
2019-03-08T12:07:06.410Z,18912.00
2019-03-08T12:08:06.417Z,18720.00
2019-03-08T12:09:06.410Z,19136.00
2019-03-08T12:10:06.375Z,19200.00
2019-03-08T12:11:06.369Z,17856.00
2019-03-08T12:12:06.422Z,14920.00
2019-03-08T12:13:06.348Z,14940.00
2019-03-08T12:14:06.332Z,13276.00
2019-03-08T12:15:06.344Z,11640.00
2019-03-08T12:16:06.308Z,10056.00
2019-03-08T12:17:06.305Z,9240.00
2019-03-08T12:18:06.287Z,8996.00
2019-03-08T12:19:06.280Z,8912.00
2019-03-08T12:20:06.269Z,8620.00
2019-03-08T12:21:06.299Z,8692.00
2019-03-08T12:22:06.246Z,9884.00
2019-03-08T12:23:06.238Z,9512.00
2019-03-08T12:24:06.220Z,8244.00
2019-03-08T12:25:06.215Z,8052.00
2019-03-08T12:26:06.223Z,9144.00
2019-03-08T12:27:06.189Z,9212.00
2019-03-08T12:28:06.179Z,8616.00
2019-03-08T12:29:06.169Z,8328.00
2019-03-08T12:30:06.159Z,8844.00
2019-03-08T12:31:06.166Z,8792.00
2019-03-08T12:32:06.140Z,9204.00
2019-03-08T12:33:06.129Z,9168.00
2019-03-08T12:34:06.134Z,9436.00